createdAt,value
2022-11-14T00:00:38.446Z,1020.18
2022-11-14T00:05:31.004Z,1020.2
2022-11-14T00:10:23.267Z,1020.2
2022-11-14T00:15:15.912Z,1020.13
2022-11-14T00:20:08.451Z,1020.15
2022-11-14T00:25:01.042Z,1020.17
2022-11-14T00:29:53.458Z,1020.23
2022-11-14T00:34:45.991Z,1020.23
2022-11-14T00:39:38.477Z,1020.25
2022-11-14T00:44:33.164Z,1020.18
2022-11-14T00:49:25.305Z,1020.12
2022-11-14T00:54:17.895Z,1019.96
2022-11-14T00:59:10.344Z,1019.9
2022-11-14T01:04:03.069Z,1019.9
2022-11-14T01:08:55.463Z,1019.73
2022-11-14T01:13:47.812Z,1019.67
2022-11-14T01:18:40.328Z,1019.67
2022-11-14T01:23:32.940Z,1019.64
2022-11-14T01:28:25.349Z,1019.52
2022-11-14T01:33:17.928Z,1019.51
2022-11-14T01:38:10.212Z,1019.46
2022-11-14T01:43:02.799Z,1019.46
2022-11-14T01:47:55.118Z,1019.35
2022-11-14T01:52:47.488Z,1019.3
2022-11-14T01:57:40.106Z,1019.25
2022-11-14T02:02:32.533Z,1019.16
2022-11-14T02:07:25.057Z,1019.15
2022-11-14T02:12:17.384Z,1019.1
2022-11-14T02:22:02.523Z,1019.05
2022-11-14T02:26:54.773Z,1018.96
2022-11-14T02:31:47.154Z,1018.97
2022-11-14T02:36:39.624Z,1019.06
2022-11-14T02:41:32.169Z,1019.05
2022-11-14T02:46:24.959Z,1018.91
2022-11-14T02:51:17.345Z,1018.82
2022-11-14T02:56:09.699Z,1018.77
2022-11-14T03:01:25.611Z,1018.7
2022-11-14T03:05:54.572Z,1018.68
2022-11-14T03:10:47.237Z,1018.67
2022-11-14T03:15:39.802Z,1018.64
2022-11-14T03:20:32.535Z,1018.62
2022-11-14T03:25:24.842Z,1018.64
2022-11-14T03:30:17.457Z,1018.64
2022-11-14T03:35:09.800Z,1018.61
2022-11-14T03:40:02.603Z,1018.59
2022-11-14T03:49:47.709Z,1018.55
2022-11-14T03:59:33.064Z,1018.33
2022-11-14T04:09:18.061Z,1018.19
2022-11-14T04:19:03.532Z,1018.2
2022-11-14T04:23:56.058Z,1018.08
2022-11-14T04:28:48.594Z,1017.94
2022-11-14T04:33:40.974Z,1017.88
2022-11-14T04:38:33.704Z,1017.83
2022-11-14T04:43:26.025Z,1017.72
2022-11-14T04:48:18.418Z,1017.63
2022-11-14T04:53:10.933Z,1017.53
2022-11-14T04:58:03.524Z,1017.53
2022-11-14T05:02:55.888Z,1017.57
2022-11-14T05:07:48.395Z,1017.62
2022-11-14T05:12:41.231Z,1017.6
2022-11-14T05:17:33.990Z,1017.61
2022-11-14T05:22:26.530Z,1017.54
2022-11-14T05:27:19.236Z,1017.51
2022-11-14T05:32:16.036Z,1017.51
2022-11-14T05:37:04.287Z,1017.39
2022-11-14T05:41:56.895Z,1017.33
2022-11-14T05:46:49.314Z,1017.3
2022-11-14T05:51:42.123Z,1017.25
2022-11-14T05:56:34.899Z,1017.3
2022-11-14T06:01:27.287Z,1017.32
2022-11-14T06:06:20.084Z,1017.32
2022-11-14T06:11:12.982Z,1017.34
2022-11-14T06:16:05.635Z,1017.42
2022-11-14T06:20:58.180Z,1017.5
2022-11-14T06:25:50.625Z,1017.46
2022-11-14T06:30:43.381Z,1017.5
2022-11-14T06:35:35.640Z,1017.63
2022-11-14T06:40:28.005Z,1017.68
2022-11-14T06:45:20.557Z,1017.6
2022-11-14T06:50:13.221Z,1017.67
2022-11-14T06:55:07.861Z,1017.64
2022-11-14T07:00:00.012Z,1017.69
2022-11-14T07:04:52.642Z,1017.75
2022-11-14T07:09:44.990Z,1017.85
2022-11-14T07:14:37.498Z,1017.8
2022-11-14T07:19:30.064Z,1017.74
2022-11-14T07:24:22.281Z,1017.76
2022-11-14T07:29:14.845Z,1017.72
2022-11-14T07:34:07.349Z,1017.78
2022-11-14T07:39:00.261Z,1017.72
2022-11-14T07:43:52.854Z,1017.7
2022-11-14T07:48:45.487Z,1017.71
2022-11-14T07:53:35.039Z,1017.69
2022-11-14T07:58:29.050Z,1017.68
2022-11-14T08:03:21.323Z,1017.67
2022-11-14T08:08:13.994Z,1017.67
2022-11-14T08:17:59.264Z,1017.44
2022-11-14T08:22:51.574Z,1017.56
2022-11-14T08:27:44.267Z,1017.48
2022-11-14T08:32:37.026Z,1017.37
2022-11-14T08:37:29.703Z,1017.33
2022-11-14T08:42:22.252Z,1017.28
2022-11-14T08:47:14.907Z,1017.32
2022-11-14T08:52:09.285Z,1017.32
2022-11-14T08:57:00.145Z,1017.43
2022-11-14T09:01:52.938Z,1017.35
2022-11-14T09:06:45.506Z,1017.25
2022-11-14T09:11:38.214Z,1017.2
2022-11-14T09:16:30.813Z,1017.16
2022-11-14T09:21:23.339Z,1017.02
2022-11-14T09:26:16.099Z,1016.97
2022-11-14T09:36:00.720Z,1016.87
2022-11-14T09:45:46.036Z,1016.99
2022-11-14T09:55:36.422Z,1017.11
2022-11-14T10:00:24.068Z,1017.04
2022-11-14T10:05:16.660Z,1016.94
2022-11-14T10:10:09.227Z,1016.79
2022-11-14T10:15:01.937Z,1016.74
2022-11-14T10:19:54.613Z,1016.63
2022-11-14T10:24:47.405Z,1016.57
2022-11-14T10:29:39.949Z,1016.41
2022-11-14T10:34:32.542Z,1016.48
2022-11-14T10:39:25.154Z,1016.47
2022-11-14T10:44:17.821Z,1016.5
2022-11-14T10:49:10.385Z,1016.45
2022-11-14T10:54:03.109Z,1016.31
2022-11-14T10:58:55.818Z,1016.36
2022-11-14T11:03:48.504Z,1016.24
2022-11-14T11:08:43.978Z,1016.2
2022-11-14T11:13:33.821Z,1016.18
2022-11-14T11:18:26.581Z,1016.11
2022-11-14T11:23:18.871Z,1016.12
2022-11-14T11:28:11.520Z,1016.16
2022-11-14T11:33:04.246Z,1016.06
2022-11-14T11:37:56.781Z,1016
2022-11-14T11:47:42.322Z,1016.09
2022-11-14T11:52:34.988Z,1016.07
2022-11-14T11:57:27.666Z,1016.09
2022-11-14T12:02:20.493Z,1016.09
2022-11-14T12:07:13.117Z,1016.06
2022-11-14T12:12:05.740Z,1015.95
2022-11-14T12:16:58.418Z,1015.92
2022-11-14T12:21:55.766Z,1015.86
2022-11-14T12:26:43.851Z,1015.83
2022-11-14T12:31:36.519Z,1015.81
2022-11-14T12:36:28.994Z,1015.72
2022-11-14T12:41:21.769Z,1015.72
2022-11-14T12:46:14.461Z,1015.68
2022-11-14T12:51:07.276Z,1015.55
2022-11-14T12:55:59.576Z,1015.6
2022-11-14T13:00:52.517Z,1015.58
2022-11-14T13:05:45.591Z,1015.54
2022-11-14T13:10:38.121Z,1015.59
2022-11-14T13:15:30.810Z,1015.51
2022-11-14T13:20:23.456Z,1015.51
2022-11-14T13:25:16.150Z,1015.44
2022-11-14T13:30:08.809Z,1015.45
2022-11-14T13:35:01.665Z,1015.4
2022-11-14T13:39:54.168Z,1015.39
2022-11-14T13:44:46.633Z,1015.35
2022-11-14T13:49:39.462Z,1015.24
2022-11-14T13:54:32.369Z,1015.19
2022-11-14T13:59:25.211Z,1015.17
2022-11-14T14:04:18.052Z,1015.21
2022-11-14T14:09:10.669Z,1015.12
2022-11-14T14:14:03.526Z,1015.14
2022-11-14T14:18:56.302Z,1015.19
2022-11-14T14:23:49.239Z,1015.2
2022-11-14T14:28:41.941Z,1015.11
2022-11-14T14:33:34.735Z,1015.12
2022-11-14T14:38:27.461Z,1015.08
2022-11-14T14:43:20.140Z,1015.11
2022-11-14T14:48:12.785Z,1015.15
2022-11-14T14:53:05.506Z,1015.08
2022-11-14T14:57:58.362Z,1015.01
2022-11-14T15:02:51.199Z,1014.97
2022-11-14T15:07:43.858Z,1014.95
2022-11-14T15:12:36.551Z,1014.9
2022-11-14T15:17:33.061Z,1015.01
2022-11-14T15:22:22.014Z,1015.08
2022-11-14T15:27:09.722Z,1015.06
2022-11-14T15:32:02.111Z,1015.13
2022-11-14T15:41:49.196Z,1015.11
2022-11-14T15:51:34.971Z,1014.93
2022-11-14T16:01:20.560Z,1014.91
2022-11-14T16:06:13.051Z,1014.91
2022-11-14T16:11:05.678Z,1014.85
2022-11-14T16:15:58.401Z,1014.8
2022-11-14T16:20:51.165Z,1014.74
2022-11-14T16:25:43.832Z,1014.82
2022-11-14T16:30:36.450Z,1014.87
2022-11-14T16:35:29.204Z,1014.9
2022-11-14T16:40:21.865Z,1014.86
2022-11-14T16:45:14.723Z,1014.73
2022-11-14T16:50:07.476Z,1014.81
2022-11-14T16:55:00.293Z,1014.89
2022-11-14T16:59:53.152Z,1014.85
2022-11-14T17:04:45.748Z,1014.91
2022-11-14T17:09:38.311Z,1014.85
2022-11-14T17:14:30.922Z,1014.91
2022-11-14T17:19:23.483Z,1015.01
2022-11-14T17:24:12.990Z,1014.87
2022-11-14T17:29:06.637Z,1014.84
2022-11-14T17:33:59.165Z,1014.91
2022-11-14T17:38:51.724Z,1014.89
2022-11-14T17:43:44.448Z,1014.94
2022-11-14T17:48:36.852Z,1014.95
2022-11-14T17:53:29.731Z,1014.91
2022-11-14T17:58:22.086Z,1014.98
2022-11-14T18:03:14.730Z,1015.02
2022-11-14T18:08:07.413Z,1015.07
2022-11-14T18:12:59.992Z,1015.06
2022-11-14T18:17:52.533Z,1014.99
2022-11-14T18:22:46.211Z,1015.09
2022-11-14T18:27:37.705Z,1015.05
2022-11-14T18:32:31.330Z,1015.03
2022-11-14T18:37:22.945Z,1015.05
2022-11-14T18:42:15.406Z,1015.02
2022-11-14T18:47:08.119Z,1015.03
2022-11-14T18:52:03.879Z,1015.06
2022-11-14T18:56:53.292Z,1015.07
2022-11-14T19:01:46.090Z,1015.04
2022-11-14T19:06:38.570Z,1015.03
2022-11-14T19:11:31.127Z,1015.03
2022-11-14T19:16:23.702Z,1015.01
2022-11-14T19:21:16.327Z,1014.97
2022-11-14T19:26:08.938Z,1015.07
2022-11-14T19:31:01.593Z,1015.06
2022-11-14T19:35:54.088Z,1015.12
2022-11-14T19:40:46.528Z,1015.15
2022-11-14T19:45:39.019Z,1015.16
2022-11-14T19:50:31.555Z,1015.12
2022-11-14T19:55:24.206Z,1015.05
2022-11-14T20:00:16.622Z,1015.03
2022-11-14T20:05:09.140Z,1014.91
2022-11-14T20:10:01.586Z,1014.93
2022-11-14T20:14:54.154Z,1014.93
2022-11-14T20:19:46.657Z,1014.98
2022-11-14T20:24:39.257Z,1014.92
2022-11-14T20:29:31.831Z,1015.03
2022-11-14T20:34:24.314Z,1015.08
2022-11-14T20:39:16.824Z,1014.99
2022-11-14T20:44:09.341Z,1014.96
2022-11-14T20:49:01.902Z,1014.94
2022-11-14T20:53:54.525Z,1014.95
2022-11-14T20:58:46.991Z,1014.85
2022-11-14T21:08:32.554Z,1014.82
2022-11-14T21:18:17.316Z,1014.88
2022-11-14T21:23:09.817Z,1014.87
2022-11-14T21:28:02.527Z,1014.77
2022-11-14T21:37:47.539Z,1014.79
2022-11-14T21:42:40.146Z,1014.8
2022-11-14T21:47:32.685Z,1014.78
2022-11-14T21:52:25.329Z,1014.81
2022-11-14T21:57:17.980Z,1014.77
2022-11-14T22:02:10.635Z,1014.7
2022-11-14T22:07:03.203Z,1014.69
2022-11-14T22:11:55.448Z,1014.67
2022-11-14T22:16:47.889Z,1014.68
2022-11-14T22:21:40.322Z,1014.66
2022-11-14T22:26:32.878Z,1014.62
2022-11-14T22:31:25.148Z,1014.61
2022-11-14T22:36:17.565Z,1014.57
2022-11-14T22:41:10.195Z,1014.6
2022-11-14T22:46:02.818Z,1014.53
2022-11-14T22:50:55.329Z,1014.51
2022-11-14T22:55:47.928Z,1014.58
2022-11-14T23:00:40.553Z,1014.54
2022-11-14T23:05:32.788Z,1014.51
2022-11-14T23:10:25.502Z,1014.55
2022-11-14T23:15:18.111Z,1014.48
2022-11-14T23:20:15.174Z,1014.43
2022-11-14T23:25:03.276Z,1014.41
2022-11-14T23:29:55.563Z,1014.39
2022-11-14T23:34:47.896Z,1014.36
2022-11-14T23:39:40.224Z,1014.29
2022-11-14T23:44:32.379Z,1014.27
2022-11-14T23:49:24.949Z,1014.27
2022-11-14T23:54:17.540Z,1014.22
2022-11-14T23:59:10.176Z,1014.21
